Time;durP1;ratioP1;P1;durP2;ratioP2;P2;SDS_P1;SDS_P2;PMS_P1;PMS_P2;Temp;Humidity;BMP_temperature;BMP_pressure;BME280_temperature;BME280_humidity;BME280_pressure;Samples;Min_cycle;Max_cycle;Signal;HPM_P1;HPM_P2
2021/10/01 00:00:19;;;;;;;4.82;1.77;;;12.80;99.90;;;;;;5073962;28;20054;-62
2021/10/01 00:02:45;;;;;;;4.88;1.38;;;12.80;99.90;;;;;;5080095;28;20055;-62
2021/10/01 00:05:11;;;;;;;4.13;1.50;;;12.80;99.90;;;;;;5071462;28;20045;-62
2021/10/01 00:07:36;;;;;;;4.78;1.50;;;12.80;99.90;;;;;;5068430;28;20581;-63
2021/10/01 00:10:03;;;;;;;4.45;1.50;;;12.80;99.90;;;;;;5078539;28;20115;-62
2021/10/01 00:12:29;;;;;;;4.78;1.63;;;12.80;99.90;;;;;;5068143;28;20052;-62
2021/10/01 00:14:56;;;;;;;6.95;1.65;;;12.80;99.90;;;;;;5077902;28;20048;-62
2021/10/01 00:17:22;;;;;;;5.35;2.00;;;12.80;99.90;;;;;;5066198;28;20049;-62
2021/10/01 00:19:48;;;;;;;3.67;1.73;;;12.80;99.90;;;;;;5067187;28;20049;-62
2021/10/01 00:22:14;;;;;;;5.55;1.92;;;12.80;99.90;;;;;;5076441;28;20049;-62
2021/10/01 00:24:40;;;;;;;4.05;1.50;;;12.80;99.90;;;;;;5069623;28;20497;-62
2021/10/01 00:27:09;;;;;;;3.75;2.05;;;12.80;99.90;;;;;;5075775;28;20049;-62
2021/10/01 00:29:35;;;;;;;5.15;1.63;;;12.70;99.90;;;;;;5068561;28;20048;-62
2021/10/01 00:32:01;;;;;;;5.45;1.55;;;12.70;99.90;;;;;;5064740;28;20051;-62
2021/10/01 00:34:27;;;;;;;4.78;2.00;;;12.70;99.90;;;;;;5079546;28;20045;-62
2021/10/01 00:36:53;;;;;;;3.30;1.38;;;12.70;99.90;;;;;;5075409;28;20057;-62
2021/10/01 00:39:18;;;;;;;6.45;1.63;;;12.70;99.90;;;;;;5067042;28;20081;-62
2021/10/01 00:41:44;;;;;;;5.28;1.75;;;12.70;99.90;;;;;;5076240;28;20052;-62
2021/10/01 00:44:10;;;;;;;4.15;1.42;;;12.70;99.90;;;;;;5067541;28;20113;-63
2021/10/01 00:46:35;;;;;;;4.20;1.67;;;12.70;99.90;;;;;;5064493;28;20464;-62
2021/10/01 00:49:01;;;;;;;5.18;1.60;;;12.70;99.90;;;;;;5069868;28;20048;-62
2021/10/01 00:51:28;;;;;;;7.60;2.88;;;12.70;99.90;;;;;;5064846;28;20039;-62
2021/10/01 00:53:55;;;;;;;5.30;1.90;;;12.70;99.90;;;;;;5067341;28;20104;-62
2021/10/01 00:56:21;;;;;;;6.20;1.85;;;12.70;99.90;;;;;;5065462;28;20092;-62
2021/10/01 00:58:48;;;;;;;3.33;1.60;;;12.60;99.90;;;;;;5077492;28;20439;-62
2021/10/01 01:01:13;;;;;;;4.38;1.40;;;12.60;99.90;;;;;;5069479;28;20044;-62
2021/10/01 01:03:50;;;;;;;5.22;1.67;;;12.60;99.90;;;;;;5073132;28;20431;-62
2021/10/01 01:06:55;;;;;;;4.13;1.42;;;12.60;99.90;;;;;;5084203;28;20041;-62
2021/10/01 01:09:43;;;;;;;4.50;1.88;;;12.50;99.90;;;;;;5072857;28;20048;-62
2021/10/01 01:12:09;;;;;;;5.82;1.50;;;12.50;99.90;;;;;;5071981;28;20395;-62
2021/10/01 01:14:59;;;;;;;5.47;1.60;;;12.50;99.90;;;;;;5076551;28;20076;-62
2021/10/01 01:17:42;;;;;;;;;;;12.50;99.90;;;;;;5079029;28;20050;-62
2021/10/01 01:20:17;;;;;;;4.07;1.42;;;12.50;99.90;;;;;;5083577;28;19964;-62
2021/10/01 01:23:01;;;;;;;3.72;1.50;;;12.50;99.90;;;;;;5082976;28;20072;-62
2021/10/01 01:26:02;;;;;;;4.30;1.50;;;12.50;99.90;;;;;;5073529;28;20050;-62
2021/10/01 01:28:34;;;;;;;5.60;1.83;;;12.50;99.90;;;;;;5068251;28;20048;-62
2021/10/01 01:31:10;;;;;;;5.30;1.45;;;12.50;99.90;;;;;;5072008;28;20045;-62
2021/10/01 01:33:38;;;;;;;5.10;1.75;;;12.50;99.90;;;;;;5081042;28;20070;-62
2021/10/01 01:36:05;;;;;;;6.22;1.52;;;12.50;99.90;;;;;;5073183;28;20049;-62
2021/10/01 01:38:40;;;;;;;4.68;1.52;;;12.50;99.90;;;;;;5075929;28;20055;-63
2021/10/01 01:41:07;;;;;;;5.07;1.80;;;12.50;99.90;;;;;;5078257;28;20157;-62
2021/10/01 01:43:35;;;;;;;4.80;1.45;;;12.60;99.90;;;;;;5077356;28;20043;-62
2021/10/01 01:46:02;;;;;;;5.38;1.48;;;12.60;99.90;;;;;;5077061;28;20064;-62
2021/10/01 01:48:29;;;;;;;5.30;1.55;;;12.50;99.90;;;;;;5068259;28;20082;-60
2021/10/01 01:50:57;;;;;;;4.07;1.60;;;12.50;99.90;;;;;;5081479;28;20094;-60
2021/10/01 01:53:24;;;;;;;6.13;1.63;;;12.50;99.90;;;;;;5085218;28;20075;-61
2021/10/01 01:55:51;;;;;;;6.68;1.90;;;12.50;99.90;;;;;;5077356;28;20059;-62
2021/10/01 01:58:17;;;;;;;6.45;1.80;;;12.50;99.90;;;;;;5083645;28;20053;-62
2021/10/01 02:00:46;;;;;;;3.78;1.50;;;12.50;99.90;;;;;;5078179;28;20045;-62
2021/10/01 02:03:14;;;;;;;6.10;1.77;;;12.50;99.90;;;;;;5082936;28;20052;-62
2021/10/01 02:05:40;;;;;;;4.18;1.60;;;12.50;99.90;;;;;;5068008;28;20059;-62
2021/10/01 02:08:08;;;;;;;4.18;1.60;;;12.50;99.90;;;;;;5082423;28;20105;-62
2021/10/01 02:10:35;;;;;;;5.93;2.38;;;12.50;99.90;;;;;;5087531;28;20424;-62
2021/10/01 02:13:02;;;;;;;7.20;1.80;;;12.50;99.90;;;;;;5069978;28;20057;-62
2021/10/01 02:15:32;;;;;;;5.07;1.70;;;12.50;99.90;;;;;;5070139;28;20055;-62
2021/10/01 02:18:00;;;;;;;3.95;1.75;;;12.50;99.90;;;;;;5069036;28;20104;-63
2021/10/01 02:20:28;;;;;;;5.72;1.50;;;12.50;99.90;;;;;;5077935;28;20053;-62
2021/10/01 02:22:54;;;;;;;5.32;1.58;;;12.50;99.90;;;;;;5074326;28;20048;-62
2021/10/01 02:28:09;;;;;;;4.07;1.45;;;12.50;99.90;;;;;;5079788;28;20491;-62
2021/10/01 02:30:38;;;;;;;6.70;1.90;;;12.50;99.90;;;;;;5077160;28;20096;-62
2021/10/01 02:33:20;;;;;;;6.47;1.75;;;12.50;99.90;;;;;;5072975;28;20053;-62
2021/10/01 02:35:46;;;;;;;2.63;1.20;;;12.50;99.90;;;;;;5080803;28;20096;-62
2021/10/01 02:38:12;;;;;;;4.22;1.50;;;12.50;99.90;;;;;;5074955;28;20059;-62
2021/10/01 02:40:37;;;;;;;4.35;1.42;;;12.50;99.90;;;;;;5086354;28;20055;-62
2021/10/01 02:43:03;;;;;;;5.68;1.33;;;12.50;99.90;;;;;;5075347;28;20032;-62
2021/10/01 02:45:29;;;;;;;4.53;1.50;;;12.40;99.90;;;;;;5072209;28;20071;-62
2021/10/01 02:47:55;;;;;;;3.70;1.40;;;12.40;99.90;;;;;;5080341;28;20037;-62
2021/10/01 02:50:22;;;;;;;4.22;1.40;;;12.40;99.90;;;;;;5082454;28;20048;-62
2021/10/01 02:53:01;;;;;;;3.92;1.33;;;12.40;99.90;;;;;;5086271;28;20051;-62
2021/10/01 02:55:49;;;;;;;5.35;1.30;;;12.40;99.90;;;;;;5068740;28;20072;-62
2021/10/01 02:58:27;;;;;;;7.15;1.65;;;12.50;99.90;;;;;;5077542;28;20571;-62
2021/10/01 03:00:53;;;;;;;5.97;1.77;;;12.50;99.90;;;;;;5071229;28;20053;-62
2021/10/01 03:03:25;;;;;;;8.18;1.60;;;12.50;99.90;;;;;;5074122;28;20603;-62
2021/10/01 03:05:54;;;;;;;3.28;1.40;;;12.40;99.90;;;;;;5067751;28;20057;-62
2021/10/01 03:08:22;;;;;;;5.23;1.50;;;12.50;99.90;;;;;;5084129;28;20079;-62
2021/10/01 03:10:50;;;;;;;3.35;1.35;;;12.50;99.90;;;;;;5066393;28;20405;-62
2021/10/01 03:13:20;;;;;;;4.50;1.60;;;12.50;99.90;;;;;;5076530;28;20048;-62
2021/10/01 03:15:48;;;;;;;4.88;1.85;;;12.50;99.90;;;;;;5069015;28;20382;-63
2021/10/01 03:18:14;;;;;;;2.83;1.40;;;12.50;99.90;;;;;;5082876;28;20092;-62
2021/10/01 03:20:41;;;;;;;5.05;1.40;;;12.40;99.90;;;;;;5068805;28;20406;-62
2021/10/01 03:23:07;;;;;;;6.90;1.58;;;12.40;99.90;;;;;;5081013;28;20068;-62
2021/10/01 03:25:34;;;;;;;4.07;1.63;;;12.50;99.90;;;;;;5079185;28;20072;-62
2021/10/01 03:27:59;;;;;;;3.13;1.25;;;12.40;99.90;;;;;;5071475;28;20132;-62
2021/10/01 03:30:25;;;;;;;5.45;1.60;;;12.40;99.90;;;;;;5069145;28;20047;-62
2021/10/01 03:32:51;;;;;;;4.03;1.70;;;12.40;99.90;;;;;;5068473;28;20525;-62
2021/10/01 03:35:17;;;;;;;3.65;1.35;;;12.40;99.90;;;;;;5066847;28;20097;-62
2021/10/01 03:37:45;;;;;;;2.33;1.95;;;12.40;99.90;;;;;;5074163;28;20052;-62
2021/10/01 03:40:12;;;;;;;4.63;1.38;;;12.40;99.90;;;;;;5079561;28;20082;-63
2021/10/01 03:42:39;;;;;;;6.78;1.50;;;12.40;99.90;;;;;;5069164;28;20568;-62
2021/10/01 03:45:07;;;;;;;3.45;1.33;;;12.40;99.90;;;;;;5066874;28;20053;-62
2021/10/01 03:47:34;;;;;;;8.02;2.08;;;12.30;99.90;;;;;;5069305;28;20041;-62
2021/10/01 03:50:00;;;;;;;5.05;1.40;;;12.30;99.90;;;;;;5068871;28;20040;-62
2021/10/01 03:52:26;;;;;;;4.00;1.52;;;12.30;99.90;;;;;;5068741;28;20060;-62
2021/10/01 03:54:52;;;;;;;2.97;1.20;;;12.30;99.90;;;;;;5070072;28;20045;-62
2021/10/01 03:57:19;;;;;;;3.33;1.40;;;12.20;99.90;;;;;;5067785;28;20056;-62
2021/10/01 03:59:45;;;;;;;6.93;1.98;;;12.20;99.90;;;;;;5068799;28;20068;-62
2021/10/01 04:02:11;;;;;;;4.45;1.60;;;12.20;99.90;;;;;;5081179;28;20063;-62
2021/10/01 04:04:37;;;;;;;3.88;1.55;;;12.20;99.90;;;;;;5067672;28;20057;-62
2021/10/01 04:07:04;;;;;;;4.40;1.70;;;12.20;99.90;;;;;;5065526;28;20075;-60
2021/10/01 04:09:29;;;;;;;5.07;1.40;;;12.20;99.90;;;;;;5067682;28;20057;-62
2021/10/01 04:11:57;;;;;;;4.78;1.60;;;12.20;99.90;;;;;;5072125;28;20044;-62
2021/10/01 04:14:24;;;;;;;3.05;1.30;;;12.20;99.90;;;;;;5069625;28;20499;-62
2021/10/01 04:16:50;;;;;;;7.82;1.60;;;12.20;99.90;;;;;;5067555;28;20049;-62
2021/10/01 04:19:16;;;;;;;5.30;1.50;;;12.20;99.90;;;;;;5102234;28;20036;-62
2021/10/01 04:21:43;;;;;;;4.70;1.20;;;12.20;99.90;;;;;;5075700;28;20455;-62
2021/10/01 04:24:08;;;;;;;4.47;1.30;;;12.20;99.90;;;;;;5067846;28;20055;-62
2021/10/01 04:26:34;;;;;;;4.53;1.50;;;12.30;99.90;;;;;;5100707;28;20049;-62
2021/10/01 04:29:00;;;;;;;5.28;1.40;;;12.30;99.90;;;;;;5071680;28;20036;-62
2021/10/01 04:31:26;;;;;;;5.20;1.50;;;12.30;99.90;;;;;;5072296;28;20048;-62
2021/10/01 04:33:51;;;;;;;6.07;1.77;;;12.30;99.90;;;;;;5070429;28;20044;-62
2021/10/01 04:36:18;;;;;;;5.35;1.40;;;12.30;99.90;;;;;;5066306;28;20037;-62
2021/10/01 04:38:44;;;;;;;5.63;1.48;;;12.30;99.90;;;;;;5067390;28;20049;-62
2021/10/01 04:41:10;;;;;;;3.70;1.27;;;12.30;99.90;;;;;;5077978;28;20037;-62
2021/10/01 04:43:36;;;;;;;6.15;1.38;;;12.30;99.90;;;;;;5068450;28;20040;-62
2021/10/01 04:46:03;;;;;;;3.65;1.75;;;12.30;99.90;;;;;;5076708;28;20126;-62
2021/10/01 04:48:29;;;;;;;5.13;1.45;;;12.30;99.90;;;;;;5069564;28;20041;-62
2021/10/01 04:50:55;;;;;;;4.68;1.20;;;12.30;99.90;;;;;;5077398;28;20053;-62
2021/10/01 04:53:20;;;;;;;9.45;1.60;;;12.20;99.90;;;;;;5064303;28;20048;-62
2021/10/01 04:55:46;;;;;;;3.38;1.25;;;12.10;99.90;;;;;;5065167;28;20102;-62
2021/10/01 04:58:12;;;;;;;2.72;1.17;;;12.10;99.90;;;;;;5097631;28;20057;-62
2021/10/01 05:00:38;;;;;;;5.25;2.05;;;12.10;99.90;;;;;;5066356;28;20049;-62
2021/10/01 05:03:04;;;;;;;4.85;1.17;;;12.10;99.90;;;;;;5068750;28;20055;-62
2021/10/01 05:05:30;;;;;;;4.75;1.40;;;12.10;99.90;;;;;;5079666;28;20049;-62
2021/10/01 05:07:56;;;;;;;4.78;1.55;;;12.10;99.90;;;;;;5074466;28;20044;-62
2021/10/01 05:10:22;;;;;;;6.05;1.38;;;12.00;99.90;;;;;;5075910;28;20068;-62
2021/10/01 05:12:48;;;;;;;4.82;1.30;;;12.00;99.90;;;;;;5064758;28;20037;-62
2021/10/01 05:15:14;;;;;;;2.83;1.20;;;12.00;99.90;;;;;;5065011;28;20037;-62
2021/10/01 05:17:40;;;;;;;3.33;1.42;;;12.00;99.90;;;;;;5063989;28;20048;-62
2021/10/01 05:20:10;;;;;;;2.00;1.38;;;12.00;99.90;;;;;;5067416;28;20071;-62
2021/10/01 05:22:36;;;;;;;5.40;1.50;;;12.00;99.90;;;;;;5097935;28;20044;-62
2021/10/01 05:25:04;;;;;;;3.38;1.40;;;11.90;99.90;;;;;;5080310;28;20370;-62
2021/10/01 05:27:30;;;;;;;4.97;1.55;;;11.90;99.90;;;;;;5052709;28;20105;-62
2021/10/01 05:29:56;;;;;;;6.80;1.85;;;11.90;99.90;;;;;;5080131;28;20041;-63
2021/10/01 05:32:22;;;;;;;5.15;1.55;;;11.90;99.90;;;;;;5071655;28;20048;-63
2021/10/01 05:34:48;;;;;;;5.63;1.40;;;11.90;99.90;;;;;;5073644;28;20080;-63
2021/10/01 05:37:14;;;;;;;3.72;1.27;;;12.00;99.90;;;;;;5084241;28;20097;-62
2021/10/01 05:39:40;;;;;;;4.03;1.45;;;12.00;99.90;;;;;;5077804;28;20059;-63
2021/10/01 05:42:06;;;;;;;6.43;1.50;;;12.00;99.90;;;;;;5087937;28;20041;-62
2021/10/01 05:44:31;;;;;;;4.20;1.40;;;11.90;99.90;;;;;;5073842;28;20064;-62
2021/10/01 05:47:01;;;;;;;3.28;1.17;;;11.90;99.90;;;;;;5087938;28;20419;-63
2021/10/01 05:49:32;;;;;;;3.65;1.55;;;11.90;99.90;;;;;;5087965;27;20111;-62
2021/10/01 05:52:13;;;;;;;5.20;1.60;;;11.90;99.90;;;;;;5099856;28;20059;-62
2021/10/01 05:54:39;;;;;;;4.25;1.55;;;11.90;99.90;;;;;;5072214;27;20093;-62
2021/10/01 05:57:08;;;;;;;3.55;1.48;;;11.90;99.90;;;;;;5085985;28;20052;-62
2021/10/01 05:59:37;;;;;;;3.58;1.27;;;11.80;99.90;;;;;;5070665;27;20051;-63
2021/10/01 06:02:03;;;;;;;5.95;1.25;;;11.80;99.90;;;;;;5083582;28;20040;-63
2021/10/01 06:04:28;;;;;;;6.75;1.55;;;11.90;99.90;;;;;;5072513;27;20091;-63
2021/10/01 06:06:54;;;;;;;4.80;1.83;;;11.90;99.90;;;;;;5090760;28;20428;-62
2021/10/01 06:09:20;;;;;;;5.55;2.00;;;11.90;99.90;;;;;;5069329;27;20355;-63
2021/10/01 06:11:46;;;;;;;3.83;1.55;;;11.90;99.90;;;;;;5087905;28;20045;-63
2021/10/01 06:14:12;;;;;;;4.75;1.20;;;11.90;99.90;;;;;;5070604;28;20173;-65
2021/10/01 06:16:38;;;;;;;1.92;1.10;;;11.90;99.90;;;;;;5068461;28;20056;-63
2021/10/01 06:19:04;;;;;;;4.65;1.33;;;11.90;99.90;;;;;;5075050;28;20050;-63
2021/10/01 06:21:30;;;;;;;4.88;1.08;;;12.00;99.90;;;;;;5098315;27;20142;-64
2021/10/01 06:23:56;;;;;;;4.10;1.27;;;12.00;99.90;;;;;;5072258;28;20078;-63
2021/10/01 06:26:22;;;;;;;3.30;1.30;;;12.00;99.90;;;;;;5061674;28;20057;-64
2021/10/01 06:28:47;;;;;;;4.93;1.27;;;12.00;99.90;;;;;;5075057;28;20051;-64
2021/10/01 06:31:13;;;;;;;5.78;1.33;;;12.10;99.90;;;;;;5096562;27;20048;-63
2021/10/01 06:33:40;;;;;;;3.38;1.15;;;12.10;99.90;;;;;;5073207;28;20072;-64
2021/10/01 06:36:06;;;;;;;3.10;1.48;;;12.00;99.90;;;;;;5092960;27;20055;-65
2021/10/01 06:38:32;;;;;;;3.38;1.83;;;12.10;99.90;;;;;;5071035;28;20076;-64
2021/10/01 06:40:59;;;;;;;3.20;1.30;;;12.10;99.90;;;;;;5083077;28;20056;-64
2021/10/01 06:43:26;;;;;;;3.63;1.58;;;12.10;99.90;;;;;;5081710;28;20035;-64
2021/10/01 06:45:55;;;;;;;2.70;1.30;;;12.10;99.90;;;;;;5093226;27;20158;-64
2021/10/01 08:20:44;;;;;;;3.05;1.50;;;13.50;99.90;;;;;;5061515;28;20148;-62
2021/10/01 08:23:11;;;;;;;4.68;1.30;;;13.60;99.90;;;;;;5091521;28;20048;-62
2021/10/01 08:25:38;;;;;;;3.85;1.15;;;13.60;99.90;;;;;;5068831;28;20089;-62
2021/10/01 08:28:04;;;;;;;4.32;1.58;;;13.70;99.90;;;;;;5055201;28;20122;-62
2021/10/01 08:30:30;;;;;;;4.85;1.35;;;13.70;99.90;;;;;;5073460;27;20114;-62
2021/10/01 08:32:56;;;;;;;5.72;1.45;;;13.80;99.90;;;;;;5096834;28;20051;-63
2021/10/01 08:35:24;;;;;;;3.85;1.80;;;13.80;99.90;;;;;;5070817;28;20043;-62
2021/10/01 08:37:55;;;;;;;3.95;1.40;;;13.90;99.90;;;;;;5078509;28;20044;-62
2021/10/01 08:40:21;;;;;;;3.20;1.40;;;13.90;99.90;;;;;;5063858;28;20044;-62
2021/10/01 08:42:49;;;;;;;4.22;1.30;;;13.90;99.90;;;;;;5094973;28;21435;-62
2021/10/01 08:45:17;;;;;;;3.58;1.15;;;14.00;99.90;;;;;;5062129;28;20122;-62
2021/10/01 08:47:44;;;;;;;3.40;1.15;;;14.10;99.90;;;;;;5085836;28;20051;-62
2021/10/01 08:50:12;;;;;;;3.75;1.30;;;14.20;99.90;;;;;;5063481;28;20137;-62
2021/10/01 08:52:38;;;;;;;3.75;1.08;;;14.20;99.90;;;;;;5095092;28;20091;-62
2021/10/01 08:55:07;;;;;;;2.72;1.10;;;14.20;99.90;;;;;;5067990;27;20080;-63
2021/10/01 08:57:32;;;;;;;6.45;1.15;;;14.30;99.90;;;;;;5086915;28;20072;-62
2021/10/01 08:59:59;;;;;;;6.90;1.20;;;14.20;99.90;;;;;;5058691;28;20109;-62
2021/10/01 09:02:26;;;;;;;3.75;1.80;;;14.30;99.90;;;;;;5071987;28;20041;-62
2021/10/01 09:04:55;;;;;;;5.50;1.45;;;14.30;99.90;;;;;;5070774;28;20056;-63
2021/10/01 09:07:23;;;;;;;5.55;1.40;;;14.30;99.90;;;;;;5066870;28;20056;-62
2021/10/01 09:09:51;;;;;;;4.72;1.50;;;14.20;99.90;;;;;;5060719;28;20048;-62
2021/10/01 09:12:18;;;;;;;4.82;1.20;;;14.30;99.90;;;;;;5076733;28;20053;-62
2021/10/01 09:14:54;;;;;;;5.00;1.25;;;14.30;99.90;;;;;;5057918;28;20037;-62
2021/10/01 09:17:26;;;;;;;5.18;1.10;;;14.30;99.90;;;;;;5055527;28;20059;-62
2021/10/01 09:19:54;;;;;;;4.20;1.52;;;14.40;99.90;;;;;;5057418;28;20041;-62
2021/10/01 09:22:27;;;;;;;2.22;1.00;;;14.40;99.90;;;;;;5060846;28;20432;-62
2021/10/01 09:25:06;;;;;;;3.38;1.00;;;14.50;99.90;;;;;;5056668;28;20063;-62
2021/10/01 09:27:37;;;;;;;3.03;1.10;;;14.50;99.90;;;;;;5016069;28;20044;-62
2021/10/01 09:30:04;;;;;;;4.63;1.50;;;14.60;99.90;;;;;;5052787;28;20110;-63
2021/10/01 09:32:30;;;;;;;5.90;1.60;;;14.70;99.90;;;;;;5094349;28;20379;-62
2021/10/01 09:34:56;;;;;;;3.30;1.27;;;14.70;99.90;;;;;;5064294;28;20657;-60
2021/10/01 09:37:30;;;;;;;1.98;1.27;;;14.70;99.90;;;;;;5044750;28;20121;-63
2021/10/01 09:40:01;;;;;;;4.18;1.00;;;14.70;99.90;;;;;;5072896;28;20056;-62
2021/10/01 09:42:33;;;;;;;3.83;1.20;;;14.70;99.90;;;;;;5061856;28;20048;-60
2021/10/01 09:45:05;;;;;;;5.97;1.52;;;14.70;99.90;;;;;;5050743;28;20039;-61
2021/10/01 09:47:36;;;;;;;3.28;1.10;;;14.70;99.90;;;;;;5083836;28;20060;-60
2021/10/01 09:50:11;;;;;;;4.28;1.35;;;14.70;99.90;;;;;;5047621;28;20075;-61
2021/10/01 09:52:52;;;;;;;3.05;1.25;;;14.70;99.90;;;;;;5103025;28;20075;-60
2021/10/01 09:55:21;;;;;;;4.30;1.55;;;14.80;99.90;;;;;;5088777;27;20049;-60
2021/10/01 09:58:25;;;;;;;5.37;1.77;;;14.80;99.90;;;;;;5088876;28;20044;-60
2021/10/01 10:00:53;;;;;;;4.07;1.20;;;14.80;99.90;;;;;;5036933;28;20382;-60
2021/10/01 10:03:22;;;;;;;4.40;1.50;;;14.80;99.90;;;;;;5041749;28;20610;-60
2021/10/01 10:05:56;;;;;;;3.40;1.50;;;14.90;99.90;;;;;;5024340;28;20345;-60
2021/10/01 10:08:39;;;;;;;6.32;1.55;;;14.90;99.90;;;;;;5038502;28;20409;-60
2021/10/01 10:11:10;;;;;;;4.45;1.10;;;15.00;99.90;;;;;;5051901;28;20326;-60
2021/10/01 10:13:40;;;;;;;2.63;1.10;;;15.20;99.90;;;;;;5026674;28;20100;-60
2021/10/01 10:16:06;;;;;;;;;;;15.30;99.90;;;;;;5034162;28;20060;-60
2021/10/01 10:18:32;;;;;;;3.17;1.17;;;15.30;99.90;;;;;;5051038;28;19925;-61
2021/10/01 10:20:58;;;;;;;5.05;1.35;;;15.30;99.90;;;;;;5036940;28;20527;-60
2021/10/01 10:23:23;;;;;;;3.97;1.35;;;15.30;99.90;;;;;;5064754;28;20057;-60
2021/10/01 10:25:49;;;;;;;3.00;1.40;;;15.40;99.90;;;;;;5024573;28;20057;-60
2021/10/01 10:28:15;;;;;;;5.18;1.40;;;15.40;99.90;;;;;;5029033;28;20057;-60
2021/10/01 10:30:40;;;;;;;4.70;1.10;;;15.40;99.90;;;;;;5038727;28;20156;-60
2021/10/01 10:33:37;;;;;;;4.47;1.80;;;15.30;99.90;;;;;;5023755;28;20094;-60
2021/10/01 10:36:48;;;;;;;5.10;1.77;;;15.30;99.90;;;;;;5074537;28;20067;-60
2021/10/01 10:39:15;;;;;;;4.25;1.60;;;15.30;99.90;;;;;;5065801;28;20088;-60
2021/10/01 10:41:43;;;;;;;3.08;1.30;;;15.20;99.90;;;;;;5081780;28;20050;-60
2021/10/01 10:44:11;;;;;;;5.70;1.45;;;15.30;99.90;;;;;;5073888;28;20055;-60
2021/10/01 10:46:37;;;;;;;3.95;1.60;;;15.40;99.90;;;;;;5089677;27;20139;-60
2021/10/01 10:49:16;;;;;;;5.53;1.70;;;15.40;99.90;;;;;;5083402;28;20091;-60
2021/10/01 10:52:13;;;;;;;7.15;1.90;;;15.40;99.90;;;;;;5081972;28;20123;-60
2021/10/01 10:54:51;;;;;;;2.72;1.15;;;15.50;99.90;;;;;;5073307;28;20081;-60
2021/10/01 10:57:22;;;;;;;3.60;1.38;;;15.50;99.90;;;;;;5090066;28;20074;-61
2021/10/01 10:59:53;;;;;;;5.30;1.25;;;15.50;99.90;;;;;;5069411;28;20144;-61
2021/10/01 11:02:30;;;;;;;2.63;1.38;;;15.50;99.90;;;;;;5085441;28;20279;-60
2021/10/01 11:05:14;;;;;;;4.07;1.40;;;15.50;99.90;;;;;;5075838;28;20055;-60
2021/10/01 11:07:51;;;;;;;4.35;1.23;;;15.40;99.90;;;;;;5052120;28;20386;-61
2021/10/01 11:10:37;;;;;;;4.03;1.67;;;15.40;99.90;;;;;;5067239;27;20045;-63
2021/10/01 11:13:18;;;;;;;4.10;1.40;;;15.40;99.90;;;;;;5087816;28;20040;-60
2021/10/01 11:16:08;;;;;;;3.70;1.50;;;15.40;99.90;;;;;;5074500;28;20063;-61
2021/10/01 11:18:44;;;;;;;5.13;1.67;;;15.50;99.90;;;;;;5086256;28;20099;-61
2021/10/01 11:21:44;;;;;;;2.47;1.58;;;15.60;99.90;;;;;;5074091;28;20048;-61
2021/10/01 11:24:09;;;;;;;6.57;2.10;;;15.60;99.90;;;;;;5078387;28;20055;-60
2021/10/01 11:26:44;;;;;;;3.67;1.52;;;15.60;99.90;;;;;;5065676;28;20159;-61
2021/10/01 11:29:24;;;;;;;6.07;1.60;;;15.60;99.90;;;;;;5082932;28;20064;-60
2021/10/01 11:31:55;;;;;;;5.75;1.38;;;15.60;99.90;;;;;;5080799;28;20044;-60
2021/10/01 11:34:44;;;;;;;5.63;2.15;;;15.60;99.90;;;;;;5072856;28;20045;-60
2021/10/01 11:37:32;;;;;;;6.40;2.47;;;15.60;99.90;;;;;;5083330;28;20059;-60
2021/10/01 11:40:19;;;;;;;4.47;2.33;;;15.70;99.90;;;;;;5076507;28;20103;-60
2021/10/01 11:42:48;;;;;;;6.25;1.60;;;15.70;99.90;;;;;;5066824;28;20064;-60
2021/10/01 11:45:27;;;;;;;5.97;2.00;;;15.60;99.90;;;;;;5058987;28;20041;-60
2021/10/01 11:48:03;;;;;;;4.32;1.98;;;15.60;99.90;;;;;;5058301;28;20124;-60
2021/10/01 11:50:34;;;;;;;5.55;2.33;;;15.60;99.90;;;;;;5055600;28;20045;-61
2021/10/01 11:53:00;;;;;;;5.38;1.98;;;15.50;99.90;;;;;;5090046;28;20048;-62
2021/10/01 11:55:28;;;;;;;5.18;1.58;;;15.50;99.90;;;;;;5063959;28;20482;-61
2021/10/01 11:57:57;;;;;;;3.95;1.73;;;15.40;99.90;;;;;;5062799;28;20277;-62
2021/10/01 12:00:23;;;;;;;5.43;1.80;;;15.40;99.90;;;;;;5073581;28;20048;-61
2021/10/01 12:02:54;;;;;;;4.60;1.80;;;15.40;99.90;;;;;;5096401;28;20075;-61
2021/10/01 12:05:32;;;;;;;3.33;1.60;;;15.30;99.90;;;;;;5076025;28;20053;-62
2021/10/01 12:08:04;;;;;;;4.30;2.10;;;15.20;99.90;;;;;;5062551;28;20053;-61
2021/10/01 12:10:41;;;;;;;5.93;2.00;;;15.20;99.90;;;;;;5078715;28;20130;-61
2021/10/01 12:13:09;;;;;;;3.10;1.67;;;15.00;99.90;;;;;;5048022;28;20563;-61
2021/10/01 12:15:36;;;;;;;6.85;2.22;;;15.00;99.90;;;;;;5066153;27;20040;-65
2021/10/01 12:18:04;;;;;;;4.75;2.17;;;15.00;99.90;;;;;;5092736;28;20048;-60
2021/10/01 12:20:29;;;;;;;4.50;2.15;;;15.10;99.90;;;;;;5074568;28;20036;-60
2021/10/01 12:22:55;;;;;;;4.35;1.95;;;15.10;99.90;;;;;;5099675;27;20220;-60
2021/10/01 12:25:27;;;;;;;4.45;1.98;;;15.10;99.90;;;;;;5074286;28;20045;-66
2021/10/01 12:27:54;;;;;;;4.68;1.77;;;15.10;99.90;;;;;;5063277;28;20058;-65
2021/10/01 12:30:20;;;;;;;6.20;1.92;;;15.20;99.90;;;;;;5056942;28;20039;-64
2021/10/01 12:32:47;;;;;;;3.65;1.75;;;15.20;99.90;;;;;;5097623;27;20052;-64
2021/10/01 12:35:13;;;;;;;3.65;1.90;;;15.30;99.90;;;;;;5058122;28;20139;-64
2021/10/01 12:37:43;;;;;;;3.42;1.88;;;15.40;99.90;;;;;;5096077;27;20064;-65
2021/10/01 12:40:12;;;;;;;5.63;1.80;;;15.60;99.90;;;;;;5068855;28;20075;-60
2021/10/01 12:42:39;;;;;;;2.80;1.70;;;15.70;99.90;;;;;;5097885;27;20048;-60
2021/10/01 12:45:15;;;;;;;4.90;1.98;;;15.70;99.90;;;;;;5066637;28;20052;-60
2021/10/01 12:47:45;;;;;;;3.90;1.70;;;15.70;99.90;;;;;;5077119;28;20066;-60
2021/10/01 12:50:19;;;;;;;7.13;2.42;;;15.80;99.90;;;;;;5075131;28;20323;-60
2021/10/01 12:52:54;;;;;;;8.45;1.58;;;15.80;99.90;;;;;;5078698;28;20154;-60
2021/10/01 12:55:20;;;;;;;3.33;1.60;;;15.90;99.90;;;;;;5074098;28;20049;-60
2021/10/01 12:57:48;;;;;;;4.75;1.60;;;15.90;99.90;;;;;;5096536;27;20142;-60
2021/10/01 13:00:20;;;;;;;4.80;1.90;;;16.00;99.90;;;;;;5075069;28;20336;-60
2021/10/01 13:03:02;;;;;;;4.15;1.40;;;16.00;99.90;;;;;;5084984;28;20052;-60
2021/10/01 13:05:34;;;;;;;4.32;2.05;;;16.00;99.90;;;;;;5071775;28;20052;-60
2021/10/01 13:08:02;;;;;;;7.00;2.30;;;16.00;99.90;;;;;;5098760;27;20047;-60
2021/10/01 13:10:40;;;;;;;4.93;1.48;;;16.00;99.90;;;;;;5067977;28;20039;-60
2021/10/01 13:13:18;;;;;;;5.32;1.52;;;16.00;99.90;;;;;;5100300;28;20090;-60
2021/10/01 13:15:58;;;;;;;4.05;1.48;;;16.10;99.90;;;;;;5073599;28;20059;-60
2021/10/01 13:18:30;;;;;;;4.80;1.27;;;16.20;99.90;;;;;;5053747;28;20048;-60
2021/10/01 13:21:02;;;;;;;4.32;1.40;;;16.20;99.90;;;;;;5074126;28;20044;-61
2021/10/01 13:23:32;;;;;;;5.68;1.25;;;16.20;99.90;;;;;;5100787;28;20059;-63
2021/10/01 13:26:02;;;;;;;3.90;1.33;;;16.20;99.90;;;;;;5061254;27;20621;-62
2021/10/01 13:28:30;;;;;;;4.93;1.73;;;16.20;99.90;;;;;;5078058;28;20143;-60
2021/10/01 13:30:55;;;;;;;8.20;2.08;;;16.20;99.90;;;;;;5063929;27;20036;-61
2021/10/01 13:33:23;;;;;;;3.97;1.80;;;16.40;99.90;;;;;;5105168;28;20044;-60
2021/10/01 13:35:49;;;;;;;4.57;1.23;;;16.50;99.90;;;;;;5076033;28;20487;-60
2021/10/01 13:38:15;;;;;;;4.18;1.30;;;16.70;99.90;;;;;;5081367;28;20606;-60
2021/10/01 13:40:42;;;;;;;2.90;1.40;;;16.80;99.90;;;;;;5078208;28;20044;-59
2021/10/01 13:43:08;;;;;;;3.42;1.40;;;16.90;99.90;;;;;;5069494;28;20072;-60
2021/10/01 13:45:34;;;;;;;5.15;1.40;;;17.00;99.90;;;;;;5077281;28;20036;-60
2021/10/01 13:48:01;;;;;;;2.47;1.50;;;17.00;99.90;;;;;;5095178;27;20098;-60
2021/10/01 13:50:27;;;;;;;4.40;1.45;;;17.00;99.90;;;;;;5066282;28;20052;-60
2021/10/01 13:52:52;;;;;;;4.88;1.40;;;17.10;99.90;;;;;;5080391;28;20052;-60
2021/10/01 13:55:18;;;;;;;4.93;1.35;;;17.10;99.90;;;;;;5072417;28;20060;-60
2021/10/01 13:57:47;;;;;;;3.97;1.60;;;17.00;99.90;;;;;;5093751;28;20051;-60
2021/10/01 14:00:15;;;;;;;4.75;1.42;;;16.90;99.90;;;;;;5070212;28;20104;-60
2021/10/01 14:02:42;;;;;;;4.03;1.83;;;16.90;99.90;;;;;;5087746;28;20110;-60
2021/10/01 14:05:10;;;;;;;4.30;1.30;;;16.90;99.90;;;;;;5082847;28;20075;-60
2021/10/01 14:07:38;;;;;;;5.00;1.70;;;16.80;99.90;;;;;;5084277;28;20166;-60
2021/10/01 14:10:10;;;;;;;3.20;1.50;;;16.80;99.90;;;;;;5076813;28;20045;-60
2021/10/01 14:12:37;;;;;;;3.47;1.65;;;16.80;99.90;;;;;;5083997;28;20698;-60
2021/10/01 14:15:03;;;;;;;8.07;2.25;;;16.70;99.90;;;;;;5083294;28;20082;-60
2021/10/01 14:17:29;;;;;;;4.97;1.58;;;16.60;99.90;;;;;;5080993;28;20059;-60
2021/10/01 14:19:55;;;;;;;4.72;1.55;;;16.60;99.90;;;;;;5082221;28;20117;-60
2021/10/01 14:22:21;;;;;;;3.45;1.35;;;16.50;99.90;;;;;;5077362;28;20197;-60
2021/10/01 14:24:48;;;;;;;4.55;1.23;;;16.50;99.90;;;;;;5088828;28;20131;-60
2021/10/01 14:27:14;;;;;;;5.93;1.55;;;16.60;99.90;;;;;;5069200;28;20074;-60
2021/10/01 14:29:39;;;;;;;4.70;1.50;;;16.50;99.90;;;;;;5091694;28;20091;-60
2021/10/01 14:32:05;;;;;;;4.70;1.30;;;16.50;99.90;;;;;;5080005;28;20636;-60
2021/10/01 14:34:31;;;;;;;3.05;1.13;;;16.50;99.90;;;;;;5088798;28;20289;-60